Seihou Maru — JD3992 — position and weather

sailwx.info

Track history (hours):
 
Tides and Currents Weather Stations Pressure Air Temp Water Temp Dewpoint Dewpoint Depression Visibility Wind Speed Wind Dir Waves Ship Positions

Seihou Maru

Last reported at 2018-Jun-14 10:27 UTC. Time now 2018-Jun-19 21:44 UTC.
Position N 35°16' E 139°46'.

Length 75 m; draft 14.6 m.

Type: Cargo ship. MMSI: 431007426.

Date/timePositionNaut miles runAvg speedWind from/ knotsBaromVisibWave heightAir tempDewpointWater temp
2018-Jun-14 10:27N 35°16' E 139°46'612.6
2018-Jun-14 10:00N 35°20' E 139°43'611.7
2018-Jun-14 09:30N 35°26' E 139°45'612.9
2018-Jun-14 09:00N 35°30' E 139°51'7 1.1
2018-Jun-14 02:20N 35°37' E 139°49'2 6.8
2018-Jun-14 02:00N 35°36' E 139°51'1 0.4
2018-Jun-13 23:24N 35°35' E 139°52'410.2
2018-Jun-13 23:00N 35°31' E 139°53'611.7
2018-Jun-13 22:30N 35°26' E 139°49'611.4
2018-Jun-13 22:00N 35°22' E 139°45'510.4
2018-Jun-13 21:30N 35°16' E 139°46'510.1
2018-Jun-13 21:00N 35°11' E 139°47'611.9
2018-Jun-13 20:30N 35°06' E 139°44'  
Track history (hours):
 
Tides and Currents Weather Stations Pressure Air Temp Water Temp Dewpoint Dewpoint Depression Visibility Wind Speed Wind Dir Waves Ship Positions

Seihou Maru

Last reported at 2018-Jun-14 10:27 UTC. Time now 2018-Jun-19 21:44 UTC.
Position N 35°16' E 139°46'.

Length 75 m; draft 14.6 m.

Type: Cargo ship. MMSI: 431007426.

Date/timePositionNaut miles runAvg speedWind from/ knotsBaromVisibWave heightAir tempDewpointWater temp
2018-Jun-14 10:27N 35°16' E 139°46'612.6
2018-Jun-14 10:00N 35°20' E 139°43'611.7
2018-Jun-14 09:30N 35°26' E 139°45'612.9
2018-Jun-14 09:00N 35°30' E 139°51'7 1.1
2018-Jun-14 02:20N 35°37' E 139°49'2 6.8
2018-Jun-14 02:00N 35°36' E 139°51'1 0.4
2018-Jun-13 23:24N 35°35' E 139°52'410.2
2018-Jun-13 23:00N 35°31' E 139°53'611.7
2018-Jun-13 22:30N 35°26' E 139°49'611.4
2018-Jun-13 22:00N 35°22' E 139°45'510.4
2018-Jun-13 21:30N 35°16' E 139°46'510.1
2018-Jun-13 21:00N 35°11' E 139°47'611.9
2018-Jun-13 20:30N 35°06' E 139°44'  

Dump ship's entire track history